Time;durP1;ratioP1;P1;durP2;ratioP2;P2;SDS_P1;SDS_P2;PMS_P1;PMS_P2;Temp;Humidity;BMP_temperature;BMP_pressure;BME280_temperature;BME280_humidity;BME280_pressure;Samples;Min_cycle;Max_cycle;Signal;HPM_P1;HPM_P2
2022/02/06 00:01:32;;;;;;;3.30;2.20;;;;;;;;;;5098240;28;20716;-74
2022/02/06 00:03:59;;;;;;;5.40;2.13;;;;;;;;;;5097251;28;20636;-71
2022/02/06 00:06:31;;;;;;;4.37;2.03;;;;;;;;;;5097211;28;20478;-72
2022/02/06 00:09:01;;;;;;;4.30;1.90;;;;;;;;;;5098301;28;20495;-73
2022/02/06 00:11:28;;;;;;;3.20;1.20;;;;;;;;;;5095902;28;20447;-74
2022/02/06 00:13:56;;;;;;;5.17;1.60;;;;;;;;;;5097829;28;20507;-73
2022/02/06 00:16:24;;;;;;;3.37;2.33;;;;;;;;;;5082948;28;20545;-73
2022/02/06 00:18:51;;;;;;;2.37;1.77;;;;;;;;;;5078857;28;20492;-73
2022/02/06 00:21:20;;;;;;;2.60;2.20;;;;;;;;;;5081994;28;20816;-73
2022/02/06 00:23:54;;;;;;;3.83;2.20;;;;;;;;;;5095803;28;20483;-73
2022/02/06 00:26:30;;;;;;;3.87;1.57;;;;;;;;;;5097262;28;20459;-73
2022/02/06 00:29:13;;;;;;;5.00;2.70;;;;;;;;;;5098026;28;20920;-73
2022/02/06 00:31:52;;;;;;;3.57;2.43;;;;;;;;;;5075822;28;20460;-73
2022/02/06 00:40:00;;;;;;;2.87;1.83;;;;;;;;;;5098154;28;20789;-73
2022/02/06 00:42:27;;;;;;;2.10;1.70;;;;;;;;;;5097373;28;20896;-73
2022/02/06 00:44:54;;;;;;;3.80;2.00;;;;;;;;;;5092620;28;20538;-73
2022/02/06 00:47:26;;;;;;;3.00;2.27;;;;;;;;;;5099358;28;20474;-72
2022/02/06 00:49:54;;;;;;;4.00;1.97;;;;;;;;;;5093954;28;20466;-72
2022/02/06 00:52:26;;;;;;;3.63;1.33;;;;;;;;;;5084277;28;20759;-72
2022/02/06 00:54:53;;;;;;;3.20;2.10;;;;;;;;;;5085989;28;20484;-72
2022/02/06 00:57:20;;;;;;;3.07;1.93;;;;;;;;;;5077616;28;20955;-73
2022/02/06 00:59:47;;;;;;;3.20;2.00;;;;;;;;;;5092996;28;20495;-73
2022/02/06 01:02:14;;;;;;;3.50;1.40;;;;;;;;;;5097196;28;20456;-72
2022/02/06 01:04:43;;;;;;;2.57;1.90;;;;;;;;;;5094676;28;20562;-71
2022/02/06 01:07:20;;;;;;;3.87;2.33;;;;;;;;;;5103271;28;20463;-72
2022/02/06 01:09:50;;;;;;;2.10;1.30;;;;;;;;;;5098260;28;20456;-71
2022/02/06 01:12:22;;;;;;;2.90;2.10;;;;;;;;;;5082557;28;20510;-73
2022/02/06 01:15:02;;;;;;;2.27;1.97;;;;;;;;;;5093131;28;20618;-72
2022/02/06 01:17:35;;;;;;;3.83;2.00;;;;;;;;;;5097159;28;20721;-72
2022/02/06 01:20:06;;;;;;;1.53;1.30;;;;;;;;;;5097428;28;20485;-73
2022/02/06 01:22:37;;;;;;;3.60;1.40;;;;;;;;;;5098144;28;20459;-72
2022/02/06 01:25:11;;;;;;;2.53;1.83;;;;;;;;;;5112556;28;20457;-72
2022/02/06 01:27:43;;;;;;;2.23;1.70;;;;;;;;;;5117757;28;20454;-73
2022/02/06 01:30:18;;;;;;;4.07;1.93;;;;;;;;;;5112572;28;20435;-72
2022/02/06 01:32:52;;;;;;;3.17;1.63;;;;;;;;;;5114706;28;20470;-73
2022/02/06 01:35:28;;;;;;;2.20;1.97;;;;;;;;;;5117048;28;20525;-73
2022/02/06 01:38:07;;;;;;;3.00;1.70;;;;;;;;;;5116912;28;20442;-73
2022/02/06 01:40:41;;;;;;;3.43;2.20;;;;;;;;;;5109042;28;20871;-73
2022/02/06 01:43:15;;;;;;;2.57;2.03;;;;;;;;;;5095213;28;20452;-73
2022/02/06 01:46:14;;;;;;;2.03;1.73;;;;;;;;;;5096075;28;20439;-74
2022/02/06 02:02:54;;;;;;;3.03;1.73;;;;;;;;;;5096393;28;20943;-72
2022/02/06 02:11:31;;;;;;;3.60;1.93;;;;;;;;;;5073326;28;20490;-72
2022/02/06 02:14:20;;;;;;;1.60;1.50;;;;;;;;;;5091520;28;20875;-72
2022/02/06 02:22:54;;;;;;;2.27;1.97;;;;;;;;;;5080222;28;20751;-72
2022/02/06 02:45:23;;;;;;;2.87;2.10;;;;;;;;;;5070460;28;20476;-72
2022/02/06 02:47:53;;;;;;;2.40;2.00;;;;;;;;;;5095789;28;20464;-72
2022/02/06 02:50:23;;;;;;;7.63;1.67;;;;;;;;;;5108955;28;20541;-71
2022/02/06 02:53:01;;;;;;;6.30;2.03;;;;;;;;;;5105714;28;20475;-73
2022/02/06 02:55:57;;;;;;;1.73;1.60;;;;;;;;;;5084017;28;20518;-72
2022/02/06 02:58:41;;;;;;;3.90;2.40;;;;;;;;;;5108885;28;20464;-72
2022/02/06 03:01:15;;;;;;;3.40;2.23;;;;;;;;;;5093493;28;20458;-72
2022/02/06 03:03:42;;;;;;;3.23;2.10;;;;;;;;;;5096087;28;20463;-72
2022/02/06 03:06:10;;;;;;;3.47;2.27;;;;;;;;;;5109171;28;20472;-72
2022/02/06 03:08:38;;;;;;;3.00;2.43;;;;;;;;;;5106943;28;20525;-73
2022/02/06 03:11:08;;;;;;;1.83;1.47;;;;;;;;;;5096168;28;20447;-73
2022/02/06 03:13:39;;;;;;;1.87;1.60;;;;;;;;;;5113777;28;20527;-73
2022/02/06 03:16:18;;;;;;;10.00;2.40;;;;;;;;;;5116935;28;20443;-73
2022/02/06 03:18:58;;;;;;;2.73;2.23;;;;;;;;;;5103106;28;20464;-73
2022/02/06 03:21:27;;;;;;;2.50;1.40;;;;;;;;;;5076386;28;20449;-73
2022/02/06 03:23:57;;;;;;;3.03;1.67;;;;;;;;;;5075463;28;20928;-73
2022/02/06 03:26:25;;;;;;;4.57;1.97;;;;;;;;;;5075877;28;20448;-73
2022/02/06 03:28:54;;;;;;;2.23;1.90;;;;;;;;;;5108137;28;20608;-73
2022/02/06 03:31:22;;;;;;;3.10;1.83;;;;;;;;;;5115551;28;20867;-73
2022/02/06 03:33:50;;;;;;;2.20;1.67;;;;;;;;;;5110780;28;20866;-73
2022/02/06 03:36:17;;;;;;;4.57;1.87;;;;;;;;;;5115768;28;20449;-73
2022/02/06 03:38:46;;;;;;;5.43;3.53;;;;;;;;;;5115881;28;20901;-73
2022/02/06 03:41:14;;;;;;;4.57;1.60;;;;;;;;;;5117144;28;20443;-73
2022/02/06 03:43:51;;;;;;;1.90;1.00;;;;;;;;;;5101301;28;20751;-73
2022/02/06 03:46:27;;;;;;;2.93;1.60;;;;;;;;;;5099552;28;20451;-73
2022/02/06 03:49:04;;;;;;;1.53;1.03;;;;;;;;;;5099108;28;20786;-73
2022/02/06 03:51:33;;;;;;;1.67;1.13;;;;;;;;;;5097816;28;20451;-73
2022/02/06 03:54:01;;;;;;;2.10;1.33;;;;;;;;;;5097978;28;20896;-73
2022/02/06 03:56:33;;;;;;;2.37;1.57;;;;;;;;;;5098976;28;20882;-74
2022/02/06 03:59:05;;;;;;;1.97;1.33;;;;;;;;;;5098530;28;20508;-74
2022/02/06 04:01:33;;;;;;;2.73;1.27;;;;;;;;;;5098379;28;20475;-73
2022/02/06 04:04:04;;;;;;;2.43;1.03;;;;;;;;;;5098751;28;20451;-73
2022/02/06 04:06:32;;;;;;;2.73;1.27;;;;;;;;;;5097882;28;20487;-73
2022/02/06 04:08:59;;;;;;;3.47;1.33;;;;;;;;;;5097590;28;20447;-73
2022/02/06 04:11:35;;;;;;;2.00;1.10;;;;;;;;;;5098702;28;20462;-72
2022/02/06 04:14:09;;;;;;;1.40;1.00;;;;;;;;;;5096721;28;20483;-73
2022/02/06 04:16:40;;;;;;;2.27;0.90;;;;;;;;;;5099995;28;20920;-73
2022/02/06 04:19:18;;;;;;;2.17;1.00;;;;;;;;;;5095680;28;20754;-73
2022/02/06 04:21:46;;;;;;;1.60;1.00;;;;;;;;;;5078973;28;20444;-73
2022/02/06 04:24:13;;;;;;;2.70;1.20;;;;;;;;;;5078356;28;20508;-73
2022/02/06 04:26:41;;;;;;;1.23;0.73;;;;;;;;;;5078328;28;20549;-73
2022/02/06 04:29:09;;;;;;;1.63;0.80;;;;;;;;;;5086961;28;20470;-73
2022/02/06 04:31:38;;;;;;;2.80;0.90;;;;;;;;;;5098618;28;20921;-74
2022/02/06 04:34:05;;;;;;;1.30;0.93;;;;;;;;;;5099031;28;20566;-73
2022/02/06 04:36:39;;;;;;;1.40;0.70;;;;;;;;;;5098598;28;20455;-74
2022/02/06 04:39:19;;;;;;;1.73;0.87;;;;;;;;;;5099218;28;20447;-73
2022/02/06 04:41:57;;;;;;;1.70;1.00;;;;;;;;;;5098787;28;20482;-73
2022/02/06 04:50:30;;;;;;;2.00;0.70;;;;;;;;;;5100982;28;20447;-73
2022/02/06 05:11:01;;;;;;;1.20;0.70;;;;;;;;;;5076636;28;20616;-73
2022/02/06 05:15:43;;;;;;;1.40;0.80;;;;;;;;;;5077440;28;20535;-74
2022/02/06 05:18:49;;;;;;;1.63;0.80;;;;;;;;;;5078957;28;20543;-73
2022/02/06 05:27:04;;;;;;;1.50;0.80;;;;;;;;;;5072839;28;20454;-73
2022/02/06 05:29:39;;;;;;;1.93;0.60;;;;;;;;;;5098023;28;20542;-73
2022/02/06 05:32:17;;;;;;;1.40;0.60;;;;;;;;;;5097239;28;21325;-74
2022/02/06 05:34:45;;;;;;;1.30;0.60;;;;;;;;;;5110740;28;20478;-74
2022/02/06 05:37:15;;;;;;;1.17;0.67;;;;;;;;;;5116820;28;20486;-73
2022/02/06 05:39:42;;;;;;;1.33;0.63;;;;;;;;;;5099446;28;20502;-73
2022/02/06 05:42:09;;;;;;;1.10;0.60;;;;;;;;;;5098449;28;20499;-73
2022/02/06 05:44:36;;;;;;;2.37;1.00;;;;;;;;;;5116997;28;20443;-73
2022/02/06 05:47:04;;;;;;;1.63;0.70;;;;;;;;;;5116950;28;20500;-73
2022/02/06 05:49:31;;;;;;;1.20;0.70;;;;;;;;;;5106868;28;21495;-74
2022/02/06 05:51:59;;;;;;;1.50;0.77;;;;;;;;;;5098063;28;20436;-74
2022/02/06 05:54:26;;;;;;;2.90;0.80;;;;;;;;;;5098189;28;20484;-74
2022/02/06 05:56:53;;;;;;;1.27;0.60;;;;;;;;;;5097030;28;20548;-74
2022/02/06 05:59:20;;;;;;;1.70;0.67;;;;;;;;;;5096906;28;20448;-73
2022/02/06 06:01:47;;;;;;;1.93;0.70;;;;;;;;;;5097296;28;20796;-74
2022/02/06 06:04:14;;;;;;;1.10;0.50;;;;;;;;;;5096646;28;20921;-74
2022/02/06 06:06:42;;;;;;;1.43;0.70;;;;;;;;;;5096964;28;20459;-74
2022/02/06 06:09:11;;;;;;;1.47;0.80;;;;;;;;;;5098303;28;20464;-73
2022/02/06 06:11:44;;;;;;;1.20;0.60;;;;;;;;;;5098152;28;20547;-73
2022/02/06 06:14:11;;;;;;;2.03;0.80;;;;;;;;;;5096499;28;20495;-74
2022/02/06 06:16:38;;;;;;;1.10;0.60;;;;;;;;;;5097080;28;20479;-73
2022/02/06 06:19:06;;;;;;;2.00;0.73;;;;;;;;;;5097048;28;20929;-73
2022/02/06 06:21:37;;;;;;;2.00;0.90;;;;;;;;;;5096781;28;20713;-73
2022/02/06 06:24:08;;;;;;;1.30;0.77;;;;;;;;;;5096790;28;20543;-73
2022/02/06 06:26:38;;;;;;;1.50;1.00;;;;;;;;;;5096289;28;20452;-73
2022/02/06 06:29:09;;;;;;;1.57;0.73;;;;;;;;;;5113420;28;20454;-73
2022/02/06 06:31:36;;;;;;;1.23;0.70;;;;;;;;;;5116299;28;20455;-73
2022/02/06 06:34:03;;;;;;;4.07;0.80;;;;;;;;;;5116836;28;20443;-73
2022/02/06 06:36:32;;;;;;;2.43;0.90;;;;;;;;;;5106628;28;20470;-73
2022/02/06 06:39:01;;;;;;;1.20;0.80;;;;;;;;;;5116536;28;20607;-73
2022/02/06 06:41:31;;;;;;;1.20;0.70;;;;;;;;;;5098742;28;20455;-73
2022/02/06 06:44:01;;;;;;;1.53;1.03;;;;;;;;;;5085568;28;20787;-73
2022/02/06 06:46:29;;;;;;;2.07;0.80;;;;;;;;;;5103117;28;20447;-74
2022/02/06 06:48:56;;;;;;;1.30;0.73;;;;;;;;;;5113866;28;20451;-73
2022/02/06 06:51:23;;;;;;;1.30;0.90;;;;;;;;;;5114534;28;20446;-74
2022/02/06 06:53:51;;;;;;;1.50;0.90;;;;;;;;;;5096216;28;20546;-74
2022/02/06 06:56:27;;;;;;;1.37;0.87;;;;;;;;;;5097055;28;20452;-73
2022/02/06 06:58:54;;;;;;;1.53;1.00;;;;;;;;;;5096378;28;20715;-73
2022/02/06 07:01:43;;;;;;;2.27;1.00;;;;;;;;;;5096804;28;20860;-73
2022/02/06 07:04:11;;;;;;;3.33;1.00;;;;;;;;;;5096827;28;20543;-73
2022/02/06 07:06:38;;;;;;;2.90;1.27;;;;;;;;;;5098147;28;20448;-74
2022/02/06 07:09:05;;;;;;;1.80;0.60;;;;;;;;;;5096515;28;20455;-73
2022/02/06 07:11:32;;;;;;;1.60;0.83;;;;;;;;;;5095964;28;20443;-74
2022/02/06 07:13:59;;;;;;;2.90;0.80;;;;;;;;;;5101404;28;20856;-73
2022/02/06 07:16:26;;;;;;;1.30;0.60;;;;;;;;;;5097944;28;20518;-73
2022/02/06 07:18:56;;;;;;;1.50;0.77;;;;;;;;;;5100655;28;20877;-73
2022/02/06 07:21:24;;;;;;;1.63;0.77;;;;;;;;;;5099598;28;20527;-74
2022/02/06 07:23:52;;;;;;;1.40;1.00;;;;;;;;;;5103143;28;20458;-73
2022/02/06 07:26:20;;;;;;;1.73;1.00;;;;;;;;;;5119129;28;20877;-73
2022/02/06 07:28:49;;;;;;;1.30;0.80;;;;;;;;;;5118269;28;20450;-73
2022/02/06 07:31:16;;;;;;;2.10;1.10;;;;;;;;;;5090576;28;20447;-73
2022/02/06 07:33:47;;;;;;;1.43;0.73;;;;;;;;;;5098890;28;20466;-74
2022/02/06 07:36:18;;;;;;;1.20;0.70;;;;;;;;;;5112703;28;20487;-73
2022/02/06 07:38:46;;;;;;;1.30;0.90;;;;;;;;;;5100403;28;20909;-74
2022/02/06 07:41:16;;;;;;;1.63;1.00;;;;;;;;;;5099717;28;20455;-74
2022/02/06 07:43:46;;;;;;;1.60;0.90;;;;;;;;;;5097751;28;20571;-74
2022/02/06 07:46:18;;;;;;;1.83;0.80;;;;;;;;;;5099015;28;20454;-73
2022/02/06 07:48:48;;;;;;;1.63;0.70;;;;;;;;;;5099148;28;20459;-74
2022/02/06 07:51:18;;;;;;;1.40;0.90;;;;;;;;;;5098703;28;20524;-74
2022/02/06 07:53:45;;;;;;;1.90;0.90;;;;;;;;;;5098198;28;20459;-74
2022/02/06 07:56:13;;;;;;;2.00;1.00;;;;;;;;;;5098588;28;20483;-73
2022/02/06 07:58:40;;;;;;;1.40;0.70;;;;;;;;;;5097519;28;20546;-74
2022/02/06 08:01:07;;;;;;;1.73;0.80;;;;;;;;;;5098811;28;20451;-74
2022/02/06 08:03:34;;;;;;;1.30;0.80;;;;;;;;;;5112651;28;20494;-74
2022/02/06 08:06:02;;;;;;;1.20;0.63;;;;;;;;;;5108859;28;20483;-74
2022/02/06 08:08:29;;;;;;;1.93;0.90;;;;;;;;;;5100174;28;20459;-74
2022/02/06 08:11:00;;;;;;;3.73;1.73;;;;;;;;;;5107558;28;20940;-74
2022/02/06 08:13:39;;;;;;;2.83;1.43;;;;;;;;;;5098002;28;20487;-74
2022/02/06 08:16:06;;;;;;;2.90;1.63;;;;;;;;;;5098301;28;20530;-74
2022/02/06 08:18:36;;;;;;;1.43;0.93;;;;;;;;;;5106629;28;20520;-75
2022/02/06 08:21:04;;;;;;;1.70;0.80;;;;;;;;;;5118072;28;20465;-75
2022/02/06 08:23:31;;;;;;;3.40;2.03;;;;;;;;;;5104734;28;20478;-74
2022/02/06 08:25:59;;;;;;;2.50;0.93;;;;;;;;;;5097282;28;20520;-74
2022/02/06 08:28:28;;;;;;;2.07;0.93;;;;;;;;;;5094164;28;20459;-74
2022/02/06 08:30:57;;;;;;;3.20;1.07;;;;;;;;;;5096909;28;20485;-73
2022/02/06 08:33:24;;;;;;;5.30;1.20;;;;;;;;;;5099855;28;20566;-74
2022/02/06 08:35:52;;;;;;;4.80;1.00;;;;;;;;;;5116018;28;20577;-73
2022/02/06 08:38:20;;;;;;;1.37;0.77;;;;;;;;;;5097285;28;20494;-73
2022/02/06 08:40:52;;;;;;;2.97;0.90;;;;;;;;;;5096814;28;20926;-74
2022/02/06 08:43:21;;;;;;;2.27;0.80;;;;;;;;;;5097753;28;20459;-73
2022/02/06 08:45:52;;;;;;;1.80;0.93;;;;;;;;;;5093577;28;20453;-73
2022/02/06 08:48:26;;;;;;;1.97;0.87;;;;;;;;;;5105424;28;20864;-73
2022/02/06 08:51:00;;;;;;;1.30;0.67;;;;;;;;;;5111862;27;20451;-73
2022/02/06 08:53:28;;;;;;;1.67;0.70;;;;;;;;;;5096570;28;20456;-74
2022/02/06 08:56:07;;;;;;;1.47;0.70;;;;;;;;;;5092398;28;20475;-73
2022/02/06 08:58:38;;;;;;;2.00;0.80;;;;;;;;;;5097398;28;20443;-74
2022/02/06 09:01:05;;;;;;;1.50;0.80;;;;;;;;;;5091756;28;20447;-73
2022/02/06 09:03:38;;;;;;;1.40;0.80;;;;;;;;;;5083042;28;20470;-74
2022/02/06 09:06:16;;;;;;;1.67;0.83;;;;;;;;;;5077316;28;20543;-75
2022/02/06 09:08:53;;;;;;;1.40;0.90;;;;;;;;;;5077299;28;20521;-73
2022/02/06 09:14:16;;;;;;;1.53;0.70;;;;;;;;;;5086087;28;20471;-74
2022/02/06 09:17:12;;;;;;;;;;;;;;;;;;;;;
2022/02/06 09:25:43;;;;;;;3.20;0.90;;;;;;;;;;5088093;28;20455;-74
2022/02/06 09:28:12;;;;;;;1.20;0.80;;;;;;;;;;5104773;28;20876;-74
2022/02/06 09:30:42;;;;;;;5.33;1.00;;;;;;;;;;5080053;28;20447;-74
2022/02/06 09:35:41;;;;;;;2.07;0.73;;;;;;;;;;5098137;28;20855;-73
2022/02/06 09:38:08;;;;;;;1.77;0.80;;;;;;;;;;5100503;28;20807;-74
2022/02/06 09:40:39;;;;;;;3.33;0.93;;;;;;;;;;5115453;28;20443;-73
2022/02/06 09:43:07;;;;;;;1.20;0.70;;;;;;;;;;5116262;28;20470;-73
2022/02/06 09:45:38;;;;;;;2.87;1.00;;;;;;;;;;5063757;28;20452;-74
2022/02/06 09:48:05;;;;;;;1.30;0.80;;;;;;;;;;5075029;28;20511;-74
2022/02/06 09:50:33;;;;;;;2.00;0.90;;;;;;;;;;5077114;28;20548;-72
2022/02/06 09:53:00;;;;;;;1.80;1.10;;;;;;;;;;5084723;28;20494;-72
2022/02/06 09:55:30;;;;;;;1.40;0.70;;;;;;;;;;5091608;28;20488;-74
2022/02/06 09:58:16;;;;;;;1.70;1.00;;;;;;;;;;5105085;28;20459;-73
2022/02/06 10:00:47;;;;;;;1.73;0.73;;;;;;;;;;5085293;28;20458;-73
2022/02/06 10:03:15;;;;;;;1.80;1.07;;;;;;;;;;5088010;28;20464;-73
2022/02/06 10:05:43;;;;;;;3.47;1.07;;;;;;;;;;5116428;28;20439;-74
2022/02/06 10:08:14;;;;;;;4.97;3.20;;;;;;;;;;5106781;28;20452;-74
2022/02/06 10:10:43;;;;;;;2.50;1.37;;;;;;;;;;5100587;28;20447;-74
2022/02/06 10:13:10;;;;;;;2.70;1.70;;;;;;;;;;5098444;28;20463;-73
2022/02/06 10:15:38;;;;;;;2.30;1.67;;;;;;;;;;5100307;28;20475;-73
2022/02/06 10:18:08;;;;;;;2.67;1.63;;;;;;;;;;5095549;28;20451;-73
2022/02/06 10:20:44;;;;;;;2.20;1.60;;;;;;;;;;5095345;28;20463;-74
2022/02/06 10:23:21;;;;;;;4.07;2.97;;;;;;;;;;5094140;28;20455;-75
2022/02/06 10:25:50;;;;;;;2.50;1.43;;;;;;;;;;5102409;28;20467;-74
2022/02/06 10:28:34;;;;;;;2.70;1.30;;;;;;;;;;5095330;28;20530;-74
2022/02/06 10:31:12;;;;;;;3.47;1.90;;;;;;;;;;5075794;28;20530;-74
2022/02/06 10:33:44;;;;;;;4.50;3.07;;;;;;;;;;5075759;28;20460;-74
2022/02/06 10:36:15;;;;;;;1.37;0.70;;;;;;;;;;5075996;28;20488;-74
2022/02/06 10:38:42;;;;;;;2.37;1.77;;;;;;;;;;5077966;28;20468;-74
2022/02/06 10:41:11;;;;;;;1.77;1.07;;;;;;;;;;5096273;28;20542;-74
2022/02/06 10:43:40;;;;;;;1.60;0.97;;;;;;;;;;5094423;28;20463;-74
2022/02/06 10:46:13;;;;;;;1.77;1.00;;;;;;;;;;5074515;28;20451;-74
2022/02/06 10:48:50;;;;;;;2.23;1.70;;;;;;;;;;5075814;28;20553;-75
2022/02/06 10:51:36;;;;;;;1.63;0.80;;;;;;;;;;5097878;28;20754;-73
2022/02/06 10:54:04;;;;;;;1.70;1.20;;;;;;;;;;5097313;28;20515;-74
2022/02/06 10:56:31;;;;;;;2.47;1.37;;;;;;;;;;5089752;28;20497;-74
2022/02/06 10:59:00;;;;;;;4.13;2.00;;;;;;;;;;5111666;28;20439;-74
2022/02/06 11:01:29;;;;;;;2.30;1.20;;;;;;;;;;5078201;28;20448;-75
2022/02/06 11:04:13;;;;;;;2.03;1.27;;;;;;;;;;5078463;28;20452;-73
2022/02/06 11:06:44;;;;;;;1.67;1.13;;;;;;;;;;5078641;28;20778;-72
2022/02/06 11:09:22;;;;;;;1.70;0.80;;;;;;;;;;5078271;28;20452;-74
2022/02/06 11:11:51;;;;;;;1.40;0.80;;;;;;;;;;5097108;28;20558;-74
2022/02/06 11:14:28;;;;;;;1.30;0.70;;;;;;;;;;5097281;28;20553;-74
2022/02/06 11:17:22;;;;;;;2.57;1.30;;;;;;;;;;5096674;28;20511;-74
2022/02/06 11:20:01;;;;;;;1.80;0.80;;;;;;;;;;5098150;28;20494;-75
2022/02/06 11:22:28;;;;;;;1.30;0.80;;;;;;;;;;5098768;28;20914;-74
2022/02/06 11:25:01;;;;;;;2.50;0.60;;;;;;;;;;5097933;28;20443;-76
2022/02/06 11:27:30;;;;;;;1.60;0.70;;;;;;;;;;5098074;28;20474;-74
2022/02/06 11:29:57;;;;;;;1.50;0.77;;;;;;;;;;5078598;28;20724;-75
2022/02/06 11:32:26;;;;;;;1.20;0.60;;;;;;;;;;5078095;28;20463;-74
2022/02/06 11:35:03;;;;;;;1.37;0.57;;;;;;;;;;5083775;28;20483;-75
2022/02/06 11:43:52;;;;;;;1.47;0.80;;;;;;;;;;5098791;28;20516;-74
2022/02/06 11:46:23;;;;;;;1.10;0.70;;;;;;;;;;5034818;28;20457;-74
2022/02/06 11:48:52;;;;;;;1.50;0.80;;;;;;;;;;5055736;28;20473;-74
2022/02/06 11:51:20;;;;;;;1.10;0.60;;;;;;;;;;5105040;28;20703;-74
2022/02/06 11:53:47;;;;;;;1.50;0.70;;;;;;;;;;5102576;28;20831;-74
2022/02/06 11:56:24;;;;;;;1.27;0.70;;;;;;;;;;5097502;28;20479;-74
2022/02/06 11:58:54;;;;;;;1.00;0.60;;;;;;;;;;5095066;28;20877;-75
2022/02/06 12:01:31;;;;;;;1.20;0.80;;;;;;;;;;5102930;28;20509;-74
2022/02/06 12:04:04;;;;;;;1.23;0.70;;;;;;;;;;5096076;28;20890;-74
2022/02/06 12:06:51;;;;;;;1.93;1.07;;;;;;;;;;5098485;28;20448;-74
2022/02/06 12:09:19;;;;;;;3.63;0.90;;;;;;;;;;5100198;28;20468;-74
2022/02/06 12:12:21;;;;;;;1.67;1.00;;;;;;;;;;5097399;28;20538;-74
2022/02/06 12:14:53;;;;;;;1.40;0.70;;;;;;;;;;5093642;28;20487;-74
2022/02/06 12:17:36;;;;;;;1.40;1.00;;;;;;;;;;5097382;28;20543;-75
2022/02/06 12:23:00;;;;;;;1.10;0.60;;;;;;;;;;5059998;28;20456;-74
2022/02/06 12:25:35;;;;;;;1.70;1.00;;;;;;;;;;5101115;28;20839;-76
2022/02/06 12:28:31;;;;;;;4.37;2.07;;;;;;;;;;5086770;28;20567;-75
2022/02/06 12:31:26;;;;;;;1.60;0.93;;;;;;;;;;5046604;28;21059;-75
2022/02/06 12:33:58;;;;;;;1.30;0.60;;;;;;;;;;5094211;28;20479;-74
2022/02/06 12:39:36;;;;;;;2.37;0.77;;;;;;;;;;5065998;28;20440;-75
2022/02/06 12:42:07;;;;;;;1.40;0.90;;;;;;;;;;5093139;27;20460;-75
2022/02/06 12:44:35;;;;;;;1.43;1.00;;;;;;;;;;5095587;28;20451;-75
2022/02/06 12:47:05;;;;;;;2.00;1.53;;;;;;;;;;5085816;28;20468;-75
2022/02/06 12:49:35;;;;;;;3.10;1.37;;;;;;;;;;5109624;28;20637;-75
2022/02/06 12:52:04;;;;;;;1.40;0.90;;;;;;;;;;5095896;28;20460;-74
2022/02/06 12:54:32;;;;;;;1.60;1.00;;;;;;;;;;5096060;28;20538;-74
2022/02/06 12:57:02;;;;;;;2.17;1.07;;;;;;;;;;5074079;28;20466;-75
2022/02/06 12:59:42;;;;;;;1.20;0.70;;;;;;;;;;5065504;28;20462;-75
2022/02/06 13:02:10;;;;;;;1.57;1.20;;;;;;;;;;5093913;28;20478;-76
2022/02/06 13:04:42;;;;;;;1.40;0.80;;;;;;;;;;5086175;28;20479;-75
2022/02/06 13:07:12;;;;;;;1.67;0.97;;;;;;;;;;5096385;28;20483;-74
2022/02/06 13:09:44;;;;;;;4.77;2.10;;;;;;;;;;5094437;28;20945;-75
2022/02/06 13:12:21;;;;;;;2.10;1.53;;;;;;;;;;5085624;28;20558;-75
2022/02/06 13:15:10;;;;;;;1.50;0.70;;;;;;;;;;5075040;28;20485;-76
2022/02/06 13:17:53;;;;;;;1.20;0.80;;;;;;;;;;5077281;28;20571;-75
2022/02/06 13:20:52;;;;;;;6.00;2.70;;;;;;;;;;5092240;28;20907;-76
2022/02/06 13:23:46;;;;;;;1.87;1.30;;;;;;;;;;5091708;28;20534;-74
2022/02/06 13:26:24;;;;;;;2.13;1.20;;;;;;;;;;5077828;28;20716;-76
2022/02/06 13:28:59;;;;;;;1.67;0.77;;;;;;;;;;5091393;28;20551;-77
2022/02/06 13:31:56;;;;;;;1.10;0.50;;;;;;;;;;5092307;28;20463;-74
2022/02/06 13:34:39;;;;;;;2.47;1.10;;;;;;;;;;5087359;28;20900;-76
2022/02/06 13:37:24;;;;;;;7.90;3.50;;;;;;;;;;5082256;28;20789;-76
2022/02/06 13:40:06;;;;;;;1.40;0.60;;;;;;;;;;5079248;28;20487;-75
2022/02/06 13:42:39;;;;;;;1.70;0.70;;;;;;;;;;5076044;28;20451;-77
2022/02/06 13:45:09;;;;;;;1.97;1.27;;;;;;;;;;5083418;28;20453;-76
2022/02/06 13:47:38;;;;;;;1.10;0.50;;;;;;;;;;5088435;28;20465;-76
2022/02/06 13:50:08;;;;;;;2.03;0.60;;;;;;;;;;5087111;28;20453;-75
2022/02/06 13:52:42;;;;;;;1.80;0.70;;;;;;;;;;5089151;28;20459;-76
2022/02/06 13:55:13;;;;;;;1.57;0.60;;;;;;;;;;5090570;28;20514;-76
2022/02/06 13:57:46;;;;;;;1.20;0.50;;;;;;;;;;5067570;28;20494;-76
2022/02/06 14:00:14;;;;;;;1.70;0.80;;;;;;;;;;5093204;28;20991;-76
2022/02/06 14:03:06;;;;;;;1.37;0.70;;;;;;;;;;5087216;28;20495;-75
2022/02/06 14:05:34;;;;;;;1.73;0.60;;;;;;;;;;5092146;28;20820;-75
2022/02/06 14:08:02;;;;;;;1.50;0.80;;;;;;;;;;5086865;28;20451;-75
2022/02/06 14:10:43;;;;;;;1.80;0.60;;;;;;;;;;5091666;28;20455;-76
2022/02/06 14:13:32;;;;;;;7.07;0.63;;;;;;;;;;5085859;28;20534;-75
2022/02/06 14:16:04;;;;;;;1.50;0.90;;;;;;;;;;5084292;28;20483;-76
2022/02/06 14:18:35;;;;;;;4.37;2.10;;;;;;;;;;5078210;28;20513;-74
2022/02/06 14:21:07;;;;;;;1.10;0.50;;;;;;;;;;5084604;28;20458;-74
2022/02/06 14:23:40;;;;;;;2.33;1.33;;;;;;;;;;5083980;28;20452;-75
2022/02/06 14:26:23;;;;;;;1.80;0.60;;;;;;;;;;5087451;28;20452;-76
2022/02/06 14:29:07;;;;;;;1.23;0.60;;;;;;;;;;5086446;28;20530;-75
2022/02/06 14:31:40;;;;;;;1.00;0.50;;;;;;;;;;5081773;28;20472;-74
2022/02/06 14:34:24;;;;;;;1.47;0.70;;;;;;;;;;5089270;28;20854;-75
2022/02/06 14:37:17;;;;;;;1.50;0.60;;;;;;;;;;5072261;28;20480;-75
2022/02/06 14:40:09;;;;;;;1.40;0.60;;;;;;;;;;5055641;28;21027;-74
2022/02/06 14:42:38;;;;;;;1.20;0.60;;;;;;;;;;5074050;28;20440;-74
2022/02/06 14:45:14;;;;;;;2.03;0.80;;;;;;;;;;5070505;28;20521;-74
2022/02/06 14:47:41;;;;;;;3.00;1.20;;;;;;;;;;5068445;28;20453;-74
2022/02/06 14:50:23;;;;;;;3.97;2.30;;;;;;;;;;5073607;28;20840;-74
2022/02/06 14:55:36;;;;;;;1.43;0.73;;;;;;;;;;5067867;28;20482;-75
2022/02/06 14:58:08;;;;;;;1.53;0.50;;;;;;;;;;5071928;28;20491;-74
2022/02/06 15:00:40;;;;;;;1.77;1.00;;;;;;;;;;5069871;28;20990;-75
2022/02/06 15:03:07;;;;;;;2.70;0.97;;;;;;;;;;5068044;28;21124;-76
2022/02/06 15:05:34;;;;;;;2.87;1.37;;;;;;;;;;5073057;28;20506;-75
2022/02/06 15:08:01;;;;;;;1.40;0.77;;;;;;;;;;5067540;28;20479;-75
2022/02/06 15:10:31;;;;;;;1.20;0.80;;;;;;;;;;5070716;28;20456;-74
2022/02/06 15:13:01;;;;;;;1.73;0.80;;;;;;;;;;5071250;28;20459;-75
2022/02/06 15:15:37;;;;;;;1.37;0.63;;;;;;;;;;5073031;28;20769;-77
2022/02/06 15:18:21;;;;;;;1.53;0.70;;;;;;;;;;5069034;28;20476;-73
2022/02/06 15:20:49;;;;;;;2.70;1.07;;;;;;;;;;5070537;28;20456;-74
2022/02/06 15:23:16;;;;;;;1.77;0.80;;;;;;;;;;5073112;28;20465;-75
2022/02/06 15:25:43;;;;;;;2.17;0.77;;;;;;;;;;5059561;28;20483;-75
2022/02/06 15:28:10;;;;;;;1.40;0.50;;;;;;;;;;5058951;28;20495;-75
2022/02/06 15:30:40;;;;;;;1.60;0.87;;;;;;;;;;5066296;28;20493;-75
2022/02/06 15:33:16;;;;;;;1.10;0.60;;;;;;;;;;5073450;28;20495;-75
2022/02/06 15:35:45;;;;;;;2.30;0.70;;;;;;;;;;5055426;28;20483;-75
2022/02/06 15:38:22;;;;;;;1.60;0.70;;;;;;;;;;5056135;28;20461;-74
2022/02/06 15:40:51;;;;;;;2.83;0.80;;;;;;;;;;5074142;28;20475;-74
2022/02/06 15:43:18;;;;;;;1.30;0.60;;;;;;;;;;5076583;28;20461;-74
2022/02/06 15:45:48;;;;;;;4.17;1.10;;;;;;;;;;5070292;28;20453;-74
2022/02/06 15:48:16;;;;;;;1.40;0.63;;;;;;;;;;5057924;28;20500;-74
2022/02/06 15:50:50;;;;;;;3.20;1.10;;;;;;;;;;5066846;28;20484;-74
2022/02/06 15:53:18;;;;;;;2.30;1.20;;;;;;;;;;5069991;28;20487;-74
2022/02/06 15:55:46;;;;;;;3.77;1.23;;;;;;;;;;5065117;28;20543;-74
2022/02/06 15:58:17;;;;;;;3.10;2.40;;;;;;;;;;5074244;28;20454;-74
2022/02/06 16:00:55;;;;;;;2.23;1.30;;;;;;;;;;5067095;28;20461;-75
2022/02/06 16:03:53;;;;;;;8.67;2.57;;;;;;;;;;5059008;28;20461;-74
2022/02/06 16:06:23;;;;;;;1.67;0.87;;;;;;;;;;5068370;28;20495;-74
2022/02/06 16:08:51;;;;;;;4.30;3.90;;;;;;;;;;5077380;28;20456;-74
2022/02/06 16:11:18;;;;;;;4.20;1.93;;;;;;;;;;5069239;28;20826;-74
2022/02/06 16:13:45;;;;;;;3.70;1.67;;;;;;;;;;5059660;28;20547;-74
2022/02/06 16:16:13;;;;;;;7.60;2.03;;;;;;;;;;5073717;28;20496;-74
2022/02/06 16:18:40;;;;;;;3.60;1.73;;;;;;;;;;5057523;28;21069;-74
2022/02/06 16:21:07;;;;;;;3.20;1.80;;;;;;;;;;5057509;28;20496;-75
2022/02/06 16:23:35;;;;;;;2.93;1.40;;;;;;;;;;5059543;28;20947;-75
2022/02/06 16:26:05;;;;;;;2.93;1.93;;;;;;;;;;5069174;28;20510;-75
2022/02/06 16:28:32;;;;;;;6.40;2.10;;;;;;;;;;5061311;28;20477;-73
2022/02/06 16:31:00;;;;;;;4.83;1.83;;;;;;;;;;5070239;28;20459;-74
2022/02/06 16:36:30;;;;;;;5.67;2.37;;;;;;;;;;5072099;28;20493;-75
2022/02/06 16:39:05;;;;;;;6.57;1.37;;;;;;;;;;5086013;28;20882;-75
2022/02/06 16:41:33;;;;;;;7.63;2.00;;;;;;;;;;5098156;28;20533;-75
2022/02/06 16:44:11;;;;;;;3.00;1.60;;;;;;;;;;5097723;28;20524;-74
2022/02/06 16:46:38;;;;;;;4.80;1.27;;;;;;;;;;5097687;28;20504;-75
2022/02/06 16:49:08;;;;;;;4.73;2.37;;;;;;;;;;5097945;28;20452;-75
2022/02/06 16:51:39;;;;;;;2.30;1.70;;;;;;;;;;5097542;28;20454;-75
2022/02/06 16:54:07;;;;;;;2.70;1.60;;;;;;;;;;5098161;28;20911;-74
2022/02/06 16:56:34;;;;;;;3.13;1.40;;;;;;;;;;5097722;28;20487;-74
2022/02/06 16:59:03;;;;;;;4.27;1.77;;;;;;;;;;5098109;28;20501;-74
2022/02/06 17:01:30;;;;;;;2.57;1.60;;;;;;;;;;5097483;28;20726;-74
2022/02/06 17:04:00;;;;;;;10.30;2.60;;;;;;;;;;5082976;28;20456;-74
2022/02/06 17:06:33;;;;;;;4.67;2.00;;;;;;;;;;5066884;28;20448;-74